Date,TemperatureHighF,TemperatureAvgF,TemperatureLowF,DewpointHighF,DewpointAvgF,DewpointLowF,HumidityHigh,HumidityAvg,HumidityLow,PressureMaxIn,PressureMinIn,WindSpeedMaxMPH,WindSpeedAvgMPH,GustSpeedMaxMPH,PrecipitationSumIn
2013-1-1,79,73,66,65,61,59,84,68,57,30.19,30.04,11,2,0,0.00
2013-1-2,83,72,61,69,64,59,97,80,52,30.08,29.98,5,1,0,0.00
2013-1-3,85,74,67,70,67,65,94,81,57,30.12,30.01,8,1,0,0.00
2013-1-4,85,72,65,72,68,64,97,87,62,30.22,30.09,5,1,0,0.00
2013-1-5,75,69,66,70,67,65,97,93,82,30.24,30.14,7,1,0,0.05
2013-1-6,82,73,65,73,69,64,98,88,71,30.17,30.05,10,2,0,0.05
2013-1-7,73,70,66,71,68,66,97,94,89,30.15,30.06,0,0,0,0.24
2013-1-8,82,75,69,74,71,68,97,88,71,30.18,30.06,0,0,0,0.06
2013-1-9,82,77,73,73,71,70,95,83,73,30.27,30.14,0,0,0,0.00
2013-1-10,80,76,73,70,68,65,83,75,61,30.28,30.17,0,0,0,0.00
2013-1-11,80,76,72,72,68,67,87,79,70,30.24,30.14,0,0,0,0.02
2013-1-12,81,74,67,70,68,65,92,80,64,30.17,30.08,0,0,0,0.05
2013-1-13,81,75,67,69,66,65,93,75,62,30.12,30.06,0,0,0,0.00
2013-1-14,80,74,66,67,65,62,88,75,61,30.16,30.11,0,0,0,0.00
2013-1-15,79,74,66,69,67,64,93,80,68,30.12,30.04,0,0,0,0.01
2013-1-16,82,72,63,70,67,62,96,84,65,30.09,30.00,0,0,0,0.00
2013-1-17,82,71,61,73,66,54,98,85,69,30.08,29.96,10,1,0,0.04
2013-1-18,72,63,52,60,54,46,83,72,62,30.22,30.08,13,3,0,0.00
2013-1-19,70,68,64,68,64,59,97,88,68,30.20,30.08,5,0,0,0.21
2013-1-20,81,70,63,70,66,63,98,87,64,30.13,30.00,6,1,0,0.00
2013-1-21,81,72,65,71,67,64,98,87,67,30.05,29.94,7,1,0,0.01
2013-1-22,76,68,62,64,59,53,96,76,59,30.20,29.99,11,3,0,0.00
2013-1-23,74,66,59,59,56,53,87,69,51,30.29,30.19,8,2,0,0.00
2013-1-24,77,65,57,55,53,44,89,68,42,30.28,30.19,4,1,0,0.00
2013-1-25,77,66,56,60,56,51,87,72,50,30.28,30.16,6,1,0,0.00
2013-1-26,79,67,57,61,58,53,95,76,47,30.24,30.15,6,1,0,0.00
2013-1-27,78,70,60,64,61,58,93,75,52,30.27,30.19,12,2,0,0.00
2013-1-28,80,74,71,68,65,62,82,72,59,30.30,30.21,12,3,0,0.00
2013-1-29,79,74,68,70,67,65,93,81,72,30.21,30.11,9,3,0,0.00
2013-1-30,81,74,71,68,66,64,90,76,63,30.10,29.95,15,4,0,0.00
2013-1-31,71,66,57,70,59,43,96,79,53,30.18,29.93,9,2,0,0.00